sensor_id;sensor_type;location;lat;lon;timestamp;P1;durP1;ratioP1;P2;durP2;ratioP2
49578;SDS011;35483;50.828;3.228;2023-07-16T00:01:59;6.40;;;3.30;;
49578;SDS011;35483;50.828;3.228;2023-07-16T00:04:25;5.72;;;2.58;;
49578;SDS011;35483;50.828;3.228;2023-07-16T00:06:51;4.47;;;2.67;;
49578;SDS011;35483;50.828;3.228;2023-07-16T00:09:16;8.73;;;3.28;;
49578;SDS011;35483;50.828;3.228;2023-07-16T00:11:42;6.20;;;2.33;;
49578;SDS011;35483;50.828;3.228;2023-07-16T00:14:10;8.55;;;3.08;;
49578;SDS011;35483;50.828;3.228;2023-07-16T00:16:39;5.28;;;2.65;;
49578;SDS011;35483;50.828;3.228;2023-07-16T00:19:05;6.85;;;3.05;;
49578;SDS011;35483;50.828;3.228;2023-07-16T00:21:30;5.68;;;2.80;;
49578;SDS011;35483;50.828;3.228;2023-07-16T00:23:56;5.18;;;2.30;;
49578;SDS011;35483;50.828;3.228;2023-07-16T00:26:22;5.63;;;2.83;;
49578;SDS011;35483;50.828;3.228;2023-07-16T00:28:48;7.10;;;2.65;;
49578;SDS011;35483;50.828;3.228;2023-07-16T00:31:13;6.68;;;2.47;;
49578;SDS011;35483;50.828;3.228;2023-07-16T00:33:39;6.93;;;2.67;;
49578;SDS011;35483;50.828;3.228;2023-07-16T00:36:07;4.18;;;2.60;;
49578;SDS011;35483;50.828;3.228;2023-07-16T00:38:32;4.43;;;2.60;;
49578;SDS011;35483;50.828;3.228;2023-07-16T00:40:58;7.00;;;2.75;;
49578;SDS011;35483;50.828;3.228;2023-07-16T00:43:24;5.25;;;3.15;;
49578;SDS011;35483;50.828;3.228;2023-07-16T00:45:50;6.97;;;2.83;;
49578;SDS011;35483;50.828;3.228;2023-07-16T00:48:15;5.22;;;2.72;;
49578;SDS011;35483;50.828;3.228;2023-07-16T00:50:41;3.67;;;2.50;;
49578;SDS011;35483;50.828;3.228;2023-07-16T00:53:08;5.15;;;2.97;;
49578;SDS011;35483;50.828;3.228;2023-07-16T00:55:35;5.72;;;3.15;;
49578;SDS011;35483;50.828;3.228;2023-07-16T00:58:03;6.65;;;3.13;;
49578;SDS011;35483;50.828;3.228;2023-07-16T01:00:32;5.88;;;3.65;;
49578;SDS011;35483;50.828;3.228;2023-07-16T01:03:00;6.63;;;3.67;;
49578;SDS011;35483;50.828;3.228;2023-07-16T01:05:27;5.65;;;3.78;;
49578;SDS011;35483;50.828;3.228;2023-07-16T01:08:02;5.13;;;3.33;;
49578;SDS011;35483;50.828;3.228;2023-07-16T01:10:30;4.90;;;3.25;;
49578;SDS011;35483;50.828;3.228;2023-07-16T01:12:57;5.10;;;3.35;;
49578;SDS011;35483;50.828;3.228;2023-07-16T01:15:23;6.00;;;3.35;;
49578;SDS011;35483;50.828;3.228;2023-07-16T01:17:49;4.75;;;2.95;;
49578;SDS011;35483;50.828;3.228;2023-07-16T01:20:15;6.30;;;3.30;;
49578;SDS011;35483;50.828;3.228;2023-07-16T01:25:14;4.28;;;2.72;;
49578;SDS011;35483;50.828;3.228;2023-07-16T01:30:37;6.97;;;2.80;;
49578;SDS011;35483;50.828;3.228;2023-07-16T01:33:04;4.90;;;3.13;;
49578;SDS011;35483;50.828;3.228;2023-07-16T01:35:32;3.85;;;2.80;;
49578;SDS011;35483;50.828;3.228;2023-07-16T01:38:00;4.22;;;2.97;;
49578;SDS011;35483;50.828;3.228;2023-07-16T01:40:26;8.52;;;4.05;;
49578;SDS011;35483;50.828;3.228;2023-07-16T01:42:51;5.75;;;3.42;;
49578;SDS011;35483;50.828;3.228;2023-07-16T01:45:17;4.57;;;3.33;;
49578;SDS011;35483;50.828;3.228;2023-07-16T01:50:27;6.20;;;3.33;;
49578;SDS011;35483;50.828;3.228;2023-07-16T01:52:53;5.45;;;3.08;;
49578;SDS011;35483;50.828;3.228;2023-07-16T01:55:18;5.63;;;3.55;;
49578;SDS011;35483;50.828;3.228;2023-07-16T01:57:44;6.00;;;3.83;;
49578;SDS011;35483;50.828;3.228;2023-07-16T02:00:10;6.32;;;3.25;;
49578;SDS011;35483;50.828;3.228;2023-07-16T02:02:36;7.18;;;4.07;;
49578;SDS011;35483;50.828;3.228;2023-07-16T02:05:02;5.72;;;2.90;;
49578;SDS011;35483;50.828;3.228;2023-07-16T02:07:28;6.05;;;3.88;;
49578;SDS011;35483;50.828;3.228;2023-07-16T02:09:55;5.60;;;3.55;;
49578;SDS011;35483;50.828;3.228;2023-07-16T02:12:21;5.57;;;3.90;;
49578;SDS011;35483;50.828;3.228;2023-07-16T02:14:46;6.57;;;3.80;;
49578;SDS011;35483;50.828;3.228;2023-07-16T02:17:12;7.50;;;3.75;;
49578;SDS011;35483;50.828;3.228;2023-07-16T02:19:39;7.07;;;3.88;;
49578;SDS011;35483;50.828;3.228;2023-07-16T02:22:05;6.18;;;4.20;;
49578;SDS011;35483;50.828;3.228;2023-07-16T02:24:30;8.70;;;4.30;;
49578;SDS011;35483;50.828;3.228;2023-07-16T02:26:56;7.95;;;4.53;;
49578;SDS011;35483;50.828;3.228;2023-07-16T02:29:22;6.32;;;4.18;;
49578;SDS011;35483;50.828;3.228;2023-07-16T02:31:48;7.47;;;4.30;;
49578;SDS011;35483;50.828;3.228;2023-07-16T02:34:14;7.95;;;4.25;;
49578;SDS011;35483;50.828;3.228;2023-07-16T02:36:39;7.07;;;3.95;;
49578;SDS011;35483;50.828;3.228;2023-07-16T02:39:05;7.38;;;4.30;;
49578;SDS011;35483;50.828;3.228;2023-07-16T02:41:31;6.93;;;4.28;;
49578;SDS011;35483;50.828;3.228;2023-07-16T02:44:01;6.15;;;3.70;;
49578;SDS011;35483;50.828;3.228;2023-07-16T02:46:28;6.57;;;4.20;;
49578;SDS011;35483;50.828;3.228;2023-07-16T02:48:54;5.80;;;3.53;;
49578;SDS011;35483;50.828;3.228;2023-07-16T02:51:20;6.43;;;3.70;;
49578;SDS011;35483;50.828;3.228;2023-07-16T02:53:45;7.43;;;4.10;;
49578;SDS011;35483;50.828;3.228;2023-07-16T02:56:11;7.78;;;3.80;;
49578;SDS011;35483;50.828;3.228;2023-07-16T02:58:37;7.00;;;3.80;;
49578;SDS011;35483;50.828;3.228;2023-07-16T03:01:03;7.07;;;3.75;;
49578;SDS011;35483;50.828;3.228;2023-07-16T03:03:28;6.18;;;4.15;;
49578;SDS011;35483;50.828;3.228;2023-07-16T03:05:54;5.90;;;4.07;;
49578;SDS011;35483;50.828;3.228;2023-07-16T03:08:20;11.98;;;4.35;;
49578;SDS011;35483;50.828;3.228;2023-07-16T03:10:45;7.55;;;4.15;;
49578;SDS011;35483;50.828;3.228;2023-07-16T03:13:11;5.00;;;3.80;;
49578;SDS011;35483;50.828;3.228;2023-07-16T03:15:37;8.95;;;4.57;;
49578;SDS011;35483;50.828;3.228;2023-07-16T03:18:03;9.38;;;4.22;;
49578;SDS011;35483;50.828;3.228;2023-07-16T03:20:28;7.15;;;3.97;;
49578;SDS011;35483;50.828;3.228;2023-07-16T03:22:54;7.43;;;4.18;;
49578;SDS011;35483;50.828;3.228;2023-07-16T03:25:20;6.60;;;4.10;;
49578;SDS011;35483;50.828;3.228;2023-07-16T03:27:45;8.02;;;3.80;;
49578;SDS011;35483;50.828;3.228;2023-07-16T03:30:11;6.05;;;3.92;;
49578;SDS011;35483;50.828;3.228;2023-07-16T03:32:37;7.40;;;4.10;;
49578;SDS011;35483;50.828;3.228;2023-07-16T03:35:02;6.10;;;4.30;;
49578;SDS011;35483;50.828;3.228;2023-07-16T03:37:29;7.45;;;4.07;;
49578;SDS011;35483;50.828;3.228;2023-07-16T03:39:55;7.07;;;4.05;;
49578;SDS011;35483;50.828;3.228;2023-07-16T03:42:21;8.18;;;4.75;;
49578;SDS011;35483;50.828;3.228;2023-07-16T03:44:47;8.15;;;4.00;;
49578;SDS011;35483;50.828;3.228;2023-07-16T03:47:13;7.47;;;4.45;;
49578;SDS011;35483;50.828;3.228;2023-07-16T03:49:38;10.60;;;5.68;;
49578;SDS011;35483;50.828;3.228;2023-07-16T03:52:05;10.45;;;4.82;;
49578;SDS011;35483;50.828;3.228;2023-07-16T03:54:31;9.00;;;4.85;;
49578;SDS011;35483;50.828;3.228;2023-07-16T03:56:56;9.45;;;4.53;;
49578;SDS011;35483;50.828;3.228;2023-07-16T03:59:22;5.38;;;4.35;;
49578;SDS011;35483;50.828;3.228;2023-07-16T04:01:48;7.25;;;4.82;;
49578;SDS011;35483;50.828;3.228;2023-07-16T04:04:13;9.93;;;5.43;;
49578;SDS011;35483;50.828;3.228;2023-07-16T04:06:39;7.80;;;4.63;;
49578;SDS011;35483;50.828;3.228;2023-07-16T04:09:05;9.63;;;4.43;;
49578;SDS011;35483;50.828;3.228;2023-07-16T04:11:32;12.45;;;5.28;;
49578;SDS011;35483;50.828;3.228;2023-07-16T04:13:57;9.57;;;5.30;;
49578;SDS011;35483;50.828;3.228;2023-07-16T04:16:23;9.02;;;5.40;;
49578;SDS011;35483;50.828;3.228;2023-07-16T04:18:49;6.45;;;4.53;;
49578;SDS011;35483;50.828;3.228;2023-07-16T04:21:14;6.93;;;4.70;;
49578;SDS011;35483;50.828;3.228;2023-07-16T04:23:40;6.93;;;4.72;;
49578;SDS011;35483;50.828;3.228;2023-07-16T04:26:06;9.25;;;5.22;;
49578;SDS011;35483;50.828;3.228;2023-07-16T04:28:32;9.77;;;5.78;;
49578;SDS011;35483;50.828;3.228;2023-07-16T04:30:57;7.30;;;4.45;;
49578;SDS011;35483;50.828;3.228;2023-07-16T04:33:23;9.00;;;4.90;;
49578;SDS011;35483;50.828;3.228;2023-07-16T04:35:48;7.43;;;4.80;;
49578;SDS011;35483;50.828;3.228;2023-07-16T04:38:16;8.75;;;5.13;;
49578;SDS011;35483;50.828;3.228;2023-07-16T04:40:42;7.28;;;5.20;;
49578;SDS011;35483;50.828;3.228;2023-07-16T04:43:08;10.07;;;4.60;;
49578;SDS011;35483;50.828;3.228;2023-07-16T04:45:34;7.15;;;5.25;;
49578;SDS011;35483;50.828;3.228;2023-07-16T04:48:02;10.02;;;5.05;;
49578;SDS011;35483;50.828;3.228;2023-07-16T04:50:28;9.07;;;4.85;;
49578;SDS011;35483;50.828;3.228;2023-07-16T04:52:53;7.90;;;5.32;;
49578;SDS011;35483;50.828;3.228;2023-07-16T04:55:19;9.75;;;5.82;;
49578;SDS011;35483;50.828;3.228;2023-07-16T04:57:45;10.93;;;5.05;;
49578;SDS011;35483;50.828;3.228;2023-07-16T05:00:11;8.48;;;5.15;;
49578;SDS011;35483;50.828;3.228;2023-07-16T05:02:37;9.02;;;5.50;;
49578;SDS011;35483;50.828;3.228;2023-07-16T05:05:02;8.48;;;5.10;;
49578;SDS011;35483;50.828;3.228;2023-07-16T05:07:29;8.40;;;5.18;;
49578;SDS011;35483;50.828;3.228;2023-07-16T05:09:55;9.30;;;5.40;;
49578;SDS011;35483;50.828;3.228;2023-07-16T05:12:21;13.80;;;5.80;;
49578;SDS011;35483;50.828;3.228;2023-07-16T05:14:47;9.55;;;5.00;;
49578;SDS011;35483;50.828;3.228;2023-07-16T05:17:13;9.25;;;5.15;;
49578;SDS011;35483;50.828;3.228;2023-07-16T05:19:40;9.30;;;5.43;;
49578;SDS011;35483;50.828;3.228;2023-07-16T05:22:06;8.68;;;5.40;;
49578;SDS011;35483;50.828;3.228;2023-07-16T05:24:32;8.50;;;5.63;;
49578;SDS011;35483;50.828;3.228;2023-07-16T05:26:58;9.90;;;5.30;;
49578;SDS011;35483;50.828;3.228;2023-07-16T05:29:24;7.13;;;5.25;;
49578;SDS011;35483;50.828;3.228;2023-07-16T05:31:50;7.82;;;5.35;;
49578;SDS011;35483;50.828;3.228;2023-07-16T05:34:15;11.82;;;5.82;;
49578;SDS011;35483;50.828;3.228;2023-07-16T05:36:41;8.85;;;5.47;;
49578;SDS011;35483;50.828;3.228;2023-07-16T05:39:09;9.73;;;5.97;;
49578;SDS011;35483;50.828;3.228;2023-07-16T05:41:38;11.48;;;5.88;;
49578;SDS011;35483;50.828;3.228;2023-07-16T05:44:04;7.88;;;5.15;;
49578;SDS011;35483;50.828;3.228;2023-07-16T05:46:30;8.50;;;4.88;;
49578;SDS011;35483;50.828;3.228;2023-07-16T05:48:56;8.95;;;5.28;;
49578;SDS011;35483;50.828;3.228;2023-07-16T05:51:22;9.13;;;5.28;;
49578;SDS011;35483;50.828;3.228;2023-07-16T05:53:47;11.75;;;5.53;;
49578;SDS011;35483;50.828;3.228;2023-07-16T05:56:13;10.73;;;5.90;;
49578;SDS011;35483;50.828;3.228;2023-07-16T05:58:39;9.25;;;5.28;;
49578;SDS011;35483;50.828;3.228;2023-07-16T06:01:06;10.27;;;5.85;;
49578;SDS011;35483;50.828;3.228;2023-07-16T06:03:32;8.98;;;5.78;;
49578;SDS011;35483;50.828;3.228;2023-07-16T06:05:57;8.60;;;5.78;;
49578;SDS011;35483;50.828;3.228;2023-07-16T06:08:23;12.20;;;5.68;;
49578;SDS011;35483;50.828;3.228;2023-07-16T06:10:50;9.25;;;5.10;;
49578;SDS011;35483;50.828;3.228;2023-07-16T06:13:16;8.07;;;5.95;;
49578;SDS011;35483;50.828;3.228;2023-07-16T06:15:42;10.45;;;5.57;;
49578;SDS011;35483;50.828;3.228;2023-07-16T06:18:08;7.40;;;5.55;;
49578;SDS011;35483;50.828;3.228;2023-07-16T06:20:35;9.52;;;5.38;;
49578;SDS011;35483;50.828;3.228;2023-07-16T06:23:01;10.02;;;5.28;;
49578;SDS011;35483;50.828;3.228;2023-07-16T06:25:26;10.10;;;5.20;;
49578;SDS011;35483;50.828;3.228;2023-07-16T06:27:52;10.73;;;5.50;;
49578;SDS011;35483;50.828;3.228;2023-07-16T06:30:18;10.48;;;5.28;;
49578;SDS011;35483;50.828;3.228;2023-07-16T06:32:43;8.55;;;5.20;;
49578;SDS011;35483;50.828;3.228;2023-07-16T06:35:09;8.90;;;5.40;;
49578;SDS011;35483;50.828;3.228;2023-07-16T06:37:35;9.70;;;5.65;;
49578;SDS011;35483;50.828;3.228;2023-07-16T06:40:01;12.68;;;5.47;;
49578;SDS011;35483;50.828;3.228;2023-07-16T06:42:28;9.15;;;5.80;;
49578;SDS011;35483;50.828;3.228;2023-07-16T06:44:53;9.10;;;5.68;;
49578;SDS011;35483;50.828;3.228;2023-07-16T06:47:19;11.38;;;4.85;;
49578;SDS011;35483;50.828;3.228;2023-07-16T06:49:45;10.55;;;5.93;;
49578;SDS011;35483;50.828;3.228;2023-07-16T06:52:20;7.70;;;5.43;;
49578;SDS011;35483;50.828;3.228;2023-07-16T06:54:47;7.43;;;5.15;;
49578;SDS011;35483;50.828;3.228;2023-07-16T06:57:13;8.55;;;5.63;;
49578;SDS011;35483;50.828;3.228;2023-07-16T06:59:39;9.05;;;5.63;;
49578;SDS011;35483;50.828;3.228;2023-07-16T07:02:05;11.48;;;5.70;;
49578;SDS011;35483;50.828;3.228;2023-07-16T07:04:31;7.57;;;4.53;;
49578;SDS011;35483;50.828;3.228;2023-07-16T07:06:57;7.25;;;4.90;;
49578;SDS011;35483;50.828;3.228;2023-07-16T07:09:22;9.00;;;4.90;;
49578;SDS011;35483;50.828;3.228;2023-07-16T07:11:48;10.15;;;5.32;;
49578;SDS011;35483;50.828;3.228;2023-07-16T07:14:14;7.80;;;5.28;;
49578;SDS011;35483;50.828;3.228;2023-07-16T07:16:39;8.55;;;4.90;;
49578;SDS011;35483;50.828;3.228;2023-07-16T07:19:05;11.63;;;5.45;;
49578;SDS011;35483;50.828;3.228;2023-07-16T07:21:31;11.23;;;4.75;;
49578;SDS011;35483;50.828;3.228;2023-07-16T07:23:57;9.43;;;4.88;;
49578;SDS011;35483;50.828;3.228;2023-07-16T07:26:22;9.82;;;4.97;;
49578;SDS011;35483;50.828;3.228;2023-07-16T07:28:48;6.50;;;5.03;;
49578;SDS011;35483;50.828;3.228;2023-07-16T07:31:14;10.90;;;5.55;;
49578;SDS011;35483;50.828;3.228;2023-07-16T07:33:40;7.15;;;4.40;;
49578;SDS011;35483;50.828;3.228;2023-07-16T07:36:05;10.73;;;4.75;;
49578;SDS011;35483;50.828;3.228;2023-07-16T07:38:31;8.45;;;4.95;;
49578;SDS011;35483;50.828;3.228;2023-07-16T07:40:57;8.60;;;5.00;;
49578;SDS011;35483;50.828;3.228;2023-07-16T07:43:22;7.25;;;4.07;;
49578;SDS011;35483;50.828;3.228;2023-07-16T07:45:48;6.70;;;4.43;;
49578;SDS011;35483;50.828;3.228;2023-07-16T07:48:14;9.55;;;4.30;;
49578;SDS011;35483;50.828;3.228;2023-07-16T07:50:40;8.43;;;4.03;;
49578;SDS011;35483;50.828;3.228;2023-07-16T07:53:05;6.38;;;4.10;;
49578;SDS011;35483;50.828;3.228;2023-07-16T07:55:33;8.48;;;4.20;;
49578;SDS011;35483;50.828;3.228;2023-07-16T07:58:00;8.80;;;4.30;;
49578;SDS011;35483;50.828;3.228;2023-07-16T08:00:26;9.13;;;4.07;;
49578;SDS011;35483;50.828;3.228;2023-07-16T08:02:51;8.10;;;4.13;;
49578;SDS011;35483;50.828;3.228;2023-07-16T08:05:17;7.25;;;3.95;;
49578;SDS011;35483;50.828;3.228;2023-07-16T08:07:43;7.47;;;4.10;;
49578;SDS011;35483;50.828;3.228;2023-07-16T08:10:09;9.90;;;4.65;;
49578;SDS011;35483;50.828;3.228;2023-07-16T08:12:35;7.85;;;4.45;;
49578;SDS011;35483;50.828;3.228;2023-07-16T08:15:01;8.75;;;4.10;;
49578;SDS011;35483;50.828;3.228;2023-07-16T08:17:27;7.22;;;3.75;;
49578;SDS011;35483;50.828;3.228;2023-07-16T08:19:53;7.28;;;4.60;;
49578;SDS011;35483;50.828;3.228;2023-07-16T08:22:18;7.22;;;4.53;;
49578;SDS011;35483;50.828;3.228;2023-07-16T08:24:44;7.57;;;4.35;;
49578;SDS011;35483;50.828;3.228;2023-07-16T08:27:10;8.90;;;4.35;;
49578;SDS011;35483;50.828;3.228;2023-07-16T08:29:36;7.53;;;4.28;;
49578;SDS011;35483;50.828;3.228;2023-07-16T08:32:02;9.30;;;4.22;;
49578;SDS011;35483;50.828;3.228;2023-07-16T08:34:28;8.02;;;3.55;;
49578;SDS011;35483;50.828;3.228;2023-07-16T08:36:53;5.53;;;3.70;;
49578;SDS011;35483;50.828;3.228;2023-07-16T08:39:19;6.82;;;4.13;;
49578;SDS011;35483;50.828;3.228;2023-07-16T08:41:45;6.63;;;3.78;;
49578;SDS011;35483;50.828;3.228;2023-07-16T08:44:12;6.47;;;3.92;;
49578;SDS011;35483;50.828;3.228;2023-07-16T08:46:38;4.03;;;2.67;;
49578;SDS011;35483;50.828;3.228;2023-07-16T08:49:07;2.95;;;2.13;;
49578;SDS011;35483;50.828;3.228;2023-07-16T08:51:34;3.50;;;2.20;;
49578;SDS011;35483;50.828;3.228;2023-07-16T08:54:01;4.68;;;2.45;;
49578;SDS011;35483;50.828;3.228;2023-07-16T08:56:26;2.90;;;1.98;;
49578;SDS011;35483;50.828;3.228;2023-07-16T08:58:54;2.97;;;2.08;;
49578;SDS011;35483;50.828;3.228;2023-07-16T09:01:23;3.38;;;1.90;;
49578;SDS011;35483;50.828;3.228;2023-07-16T09:03:49;2.90;;;1.45;;
49578;SDS011;35483;50.828;3.228;2023-07-16T09:06:15;2.38;;;1.35;;
49578;SDS011;35483;50.828;3.228;2023-07-16T09:08:41;3.78;;;1.48;;
49578;SDS011;35483;50.828;3.228;2023-07-16T09:11:10;2.70;;;1.20;;
49578;SDS011;35483;50.828;3.228;2023-07-16T09:13:43;2.50;;;1.08;;
49578;SDS011;35483;50.828;3.228;2023-07-16T09:16:09;1.83;;;1.00;;
49578;SDS011;35483;50.828;3.228;2023-07-16T09:18:35;2.92;;;0.80;;
49578;SDS011;35483;50.828;3.228;2023-07-16T09:21:00;1.80;;;0.90;;
49578;SDS011;35483;50.828;3.228;2023-07-16T09:23:32;1.85;;;1.00;;
49578;SDS011;35483;50.828;3.228;2023-07-16T09:25:58;2.50;;;0.80;;
49578;SDS011;35483;50.828;3.228;2023-07-16T09:28:24;2.88;;;1.10;;
49578;SDS011;35483;50.828;3.228;2023-07-16T09:30:51;2.28;;;0.95;;
49578;SDS011;35483;50.828;3.228;2023-07-16T09:33:18;2.22;;;1.08;;
49578;SDS011;35483;50.828;3.228;2023-07-16T09:35:47;2.25;;;1.00;;
49578;SDS011;35483;50.828;3.228;2023-07-16T09:38:14;1.90;;;1.00;;
49578;SDS011;35483;50.828;3.228;2023-07-16T09:40:40;2.85;;;1.33;;
49578;SDS011;35483;50.828;3.228;2023-07-16T09:43:09;3.28;;;1.83;;
49578;SDS011;35483;50.828;3.228;2023-07-16T09:45:36;2.03;;;1.60;;
49578;SDS011;35483;50.828;3.228;2023-07-16T09:48:02;2.60;;;1.13;;
49578;SDS011;35483;50.828;3.228;2023-07-16T09:50:29;3.08;;;1.52;;
49578;SDS011;35483;50.828;3.228;2023-07-16T09:52:57;2.75;;;1.50;;
49578;SDS011;35483;50.828;3.228;2023-07-16T09:55:23;5.20;;;1.98;;
49578;SDS011;35483;50.828;3.228;2023-07-16T09:57:51;3.80;;;2.03;;
49578;SDS011;35483;50.828;3.228;2023-07-16T10:00:18;5.07;;;2.13;;
49578;SDS011;35483;50.828;3.228;2023-07-16T10:02:46;5.78;;;2.45;;
49578;SDS011;35483;50.828;3.228;2023-07-16T10:07:42;3.92;;;2.00;;
49578;SDS011;35483;50.828;3.228;2023-07-16T10:10:11;5.07;;;2.40;;
49578;SDS011;35483;50.828;3.228;2023-07-16T10:12:37;5.63;;;1.80;;
49578;SDS011;35483;50.828;3.228;2023-07-16T10:15:04;3.65;;;1.88;;
49578;SDS011;35483;50.828;3.228;2023-07-16T10:17:31;5.03;;;2.53;;
49578;SDS011;35483;50.828;3.228;2023-07-16T10:20:01;3.70;;;1.98;;
49578;SDS011;35483;50.828;3.228;2023-07-16T10:22:42;4.78;;;1.83;;
49578;SDS011;35483;50.828;3.228;2023-07-16T10:25:22;4.60;;;2.35;;
49578;SDS011;35483;50.828;3.228;2023-07-16T10:27:50;4.95;;;2.30;;
49578;SDS011;35483;50.828;3.228;2023-07-16T10:30:17;3.53;;;2.38;;
49578;SDS011;35483;50.828;3.228;2023-07-16T10:32:43;3.50;;;1.90;;
49578;SDS011;35483;50.828;3.228;2023-07-16T10:35:09;5.53;;;2.90;;
49578;SDS011;35483;50.828;3.228;2023-07-16T10:37:38;5.45;;;2.50;;
49578;SDS011;35483;50.828;3.228;2023-07-16T10:40:05;4.10;;;2.05;;
49578;SDS011;35483;50.828;3.228;2023-07-16T10:42:36;3.10;;;2.20;;
49578;SDS011;35483;50.828;3.228;2023-07-16T10:45:03;5.80;;;2.40;;
49578;SDS011;35483;50.828;3.228;2023-07-16T10:47:31;7.28;;;2.90;;
49578;SDS011;35483;50.828;3.228;2023-07-16T10:49:57;4.13;;;2.30;;
49578;SDS011;35483;50.828;3.228;2023-07-16T10:52:24;4.68;;;1.98;;
49578;SDS011;35483;50.828;3.228;2023-07-16T10:54:50;3.30;;;2.22;;
49578;SDS011;35483;50.828;3.228;2023-07-16T10:57:19;4.18;;;2.38;;
49578;SDS011;35483;50.828;3.228;2023-07-16T10:59:50;5.25;;;2.20;;
49578;SDS011;35483;50.828;3.228;2023-07-16T11:02:16;3.58;;;2.17;;
49578;SDS011;35483;50.828;3.228;2023-07-16T11:04:43;4.20;;;2.17;;
49578;SDS011;35483;50.828;3.228;2023-07-16T11:07:11;2.63;;;1.67;;
49578;SDS011;35483;50.828;3.228;2023-07-16T11:12:14;2.20;;;1.60;;
49578;SDS011;35483;50.828;3.228;2023-07-16T11:14:46;4.60;;;2.00;;
49578;SDS011;35483;50.828;3.228;2023-07-16T11:17:13;2.33;;;1.75;;
49578;SDS011;35483;50.828;3.228;2023-07-16T11:19:40;3.83;;;2.05;;
49578;SDS011;35483;50.828;3.228;2023-07-16T11:22:08;2.42;;;2.00;;
49578;SDS011;35483;50.828;3.228;2023-07-16T11:24:38;5.00;;;2.15;;
49578;SDS011;35483;50.828;3.228;2023-07-16T11:27:15;3.17;;;1.52;;
49578;SDS011;35483;50.828;3.228;2023-07-16T11:29:47;4.90;;;2.00;;
49578;SDS011;35483;50.828;3.228;2023-07-16T11:32:30;5.70;;;2.03;;
49578;SDS011;35483;50.828;3.228;2023-07-16T11:34:57;4.70;;;1.70;;
49578;SDS011;35483;50.828;3.228;2023-07-16T11:37:25;3.55;;;2.13;;
49578;SDS011;35483;50.828;3.228;2023-07-16T11:39:55;5.03;;;1.85;;
49578;SDS011;35483;50.828;3.228;2023-07-16T11:42:28;4.30;;;1.70;;
49578;SDS011;35483;50.828;3.228;2023-07-16T11:44:55;5.40;;;1.83;;
49578;SDS011;35483;50.828;3.228;2023-07-16T11:47:22;2.97;;;1.60;;
49578;SDS011;35483;50.828;3.228;2023-07-16T11:49:50;5.15;;;2.13;;
49578;SDS011;35483;50.828;3.228;2023-07-16T11:52:23;3.33;;;2.00;;
49578;SDS011;35483;50.828;3.228;2023-07-16T11:54:51;3.60;;;2.08;;
49578;SDS011;35483;50.828;3.228;2023-07-16T11:57:17;1.77;;;1.60;;
49578;SDS011;35483;50.828;3.228;2023-07-16T11:59:43;3.97;;;1.65;;
49578;SDS011;35483;50.828;3.228;2023-07-16T12:02:09;3.25;;;1.63;;
49578;SDS011;35483;50.828;3.228;2023-07-16T12:04:35;4.38;;;2.00;;
49578;SDS011;35483;50.828;3.228;2023-07-16T12:07:01;2.97;;;1.90;;
49578;SDS011;35483;50.828;3.228;2023-07-16T12:09:27;4.82;;;1.80;;
49578;SDS011;35483;50.828;3.228;2023-07-16T12:11:52;2.60;;;1.42;;
49578;SDS011;35483;50.828;3.228;2023-07-16T12:14:18;2.35;;;1.65;;
49578;SDS011;35483;50.828;3.228;2023-07-16T12:16:44;3.40;;;1.80;;
49578;SDS011;35483;50.828;3.228;2023-07-16T12:19:10;2.45;;;1.80;;
49578;SDS011;35483;50.828;3.228;2023-07-16T12:21:35;2.88;;;1.90;;
49578;SDS011;35483;50.828;3.228;2023-07-16T12:24:01;3.35;;;2.08;;
49578;SDS011;35483;50.828;3.228;2023-07-16T12:26:27;4.72;;;2.22;;
49578;SDS011;35483;50.828;3.228;2023-07-16T12:28:53;4.18;;;2.00;;
49578;SDS011;35483;50.828;3.228;2023-07-16T12:31:19;2.47;;;1.75;;
49578;SDS011;35483;50.828;3.228;2023-07-16T12:33:48;2.50;;;1.80;;
49578;SDS011;35483;50.828;3.228;2023-07-16T12:36:14;4.85;;;2.17;;
49578;SDS011;35483;50.828;3.228;2023-07-16T12:38:40;3.92;;;2.42;;
49578;SDS011;35483;50.828;3.228;2023-07-16T12:41:06;3.67;;;1.65;;
49578;SDS011;35483;50.828;3.228;2023-07-16T12:43:33;5.05;;;2.38;;
49578;SDS011;35483;50.828;3.228;2023-07-16T12:46:03;2.25;;;1.65;;
49578;SDS011;35483;50.828;3.228;2023-07-16T12:48:32;4.00;;;2.00;;
49578;SDS011;35483;50.828;3.228;2023-07-16T12:50:58;2.80;;;1.77;;
49578;SDS011;35483;50.828;3.228;2023-07-16T12:53:24;3.28;;;1.60;;
49578;SDS011;35483;50.828;3.228;2023-07-16T12:55:51;4.22;;;1.63;;
49578;SDS011;35483;50.828;3.228;2023-07-16T12:58:17;3.42;;;1.88;;
49578;SDS011;35483;50.828;3.228;2023-07-16T13:00:44;1.73;;;1.40;;
49578;SDS011;35483;50.828;3.228;2023-07-16T13:03:09;3.25;;;1.60;;
49578;SDS011;35483;50.828;3.228;2023-07-16T13:05:39;2.65;;;1.45;;
49578;SDS011;35483;50.828;3.228;2023-07-16T13:08:06;2.10;;;1.33;;
49578;SDS011;35483;50.828;3.228;2023-07-16T13:10:32;2.33;;;1.67;;
49578;SDS011;35483;50.828;3.228;2023-07-16T13:12:58;1.95;;;1.58;;
49578;SDS011;35483;50.828;3.228;2023-07-16T13:15:23;2.42;;;1.50;;
49578;SDS011;35483;50.828;3.228;2023-07-16T13:17:49;2.05;;;1.52;;
49578;SDS011;35483;50.828;3.228;2023-07-16T13:20:15;2.05;;;1.67;;
49578;SDS011;35483;50.828;3.228;2023-07-16T13:22:42;2.90;;;1.67;;
49578;SDS011;35483;50.828;3.228;2023-07-16T13:25:07;2.03;;;1.83;;
49578;SDS011;35483;50.828;3.228;2023-07-16T13:27:33;2.40;;;1.60;;
49578;SDS011;35483;50.828;3.228;2023-07-16T13:29:59;2.75;;;1.70;;
49578;SDS011;35483;50.828;3.228;2023-07-16T13:32:25;2.92;;;1.67;;
49578;SDS011;35483;50.828;3.228;2023-07-16T13:34:50;3.70;;;1.60;;
49578;SDS011;35483;50.828;3.228;2023-07-16T13:37:16;2.13;;;1.40;;
49578;SDS011;35483;50.828;3.228;2023-07-16T13:39:42;3.00;;;1.40;;
49578;SDS011;35483;50.828;3.228;2023-07-16T13:42:07;2.65;;;1.38;;
49578;SDS011;35483;50.828;3.228;2023-07-16T13:44:33;2.67;;;1.77;;
49578;SDS011;35483;50.828;3.228;2023-07-16T13:46:59;3.20;;;1.15;;
49578;SDS011;35483;50.828;3.228;2023-07-16T13:49:24;1.73;;;1.30;;
49578;SDS011;35483;50.828;3.228;2023-07-16T13:51:50;3.13;;;1.48;;
49578;SDS011;35483;50.828;3.228;2023-07-16T13:54:16;2.20;;;1.23;;
49578;SDS011;35483;50.828;3.228;2023-07-16T13:56:42;2.20;;;1.42;;
49578;SDS011;35483;50.828;3.228;2023-07-16T13:59:07;3.10;;;1.40;;
49578;SDS011;35483;50.828;3.228;2023-07-16T14:01:37;1.73;;;1.42;;
49578;SDS011;35483;50.828;3.228;2023-07-16T14:04:04;1.50;;;1.10;;
49578;SDS011;35483;50.828;3.228;2023-07-16T14:06:29;3.53;;;1.80;;
49578;SDS011;35483;50.828;3.228;2023-07-16T14:08:55;4.78;;;1.90;;
49578;SDS011;35483;50.828;3.228;2023-07-16T14:11:21;2.53;;;1.42;;
49578;SDS011;35483;50.828;3.228;2023-07-16T14:13:48;2.28;;;1.40;;
49578;SDS011;35483;50.828;3.228;2023-07-16T14:16:16;2.63;;;1.90;;
49578;SDS011;35483;50.828;3.228;2023-07-16T14:18:43;2.03;;;1.60;;
49578;SDS011;35483;50.828;3.228;2023-07-16T14:21:08;2.35;;;1.48;;
49578;SDS011;35483;50.828;3.228;2023-07-16T14:23:36;2.30;;;1.10;;
49578;SDS011;35483;50.828;3.228;2023-07-16T14:26:01;1.50;;;1.35;;
49578;SDS011;35483;50.828;3.228;2023-07-16T14:28:28;1.95;;;1.52;;
49578;SDS011;35483;50.828;3.228;2023-07-16T14:30:53;3.05;;;1.63;;
49578;SDS011;35483;50.828;3.228;2023-07-16T14:33:20;2.78;;;1.40;;
49578;SDS011;35483;50.828;3.228;2023-07-16T14:35:46;2.63;;;1.33;;
49578;SDS011;35483;50.828;3.228;2023-07-16T14:38:12;3.67;;;1.35;;
49578;SDS011;35483;50.828;3.228;2023-07-16T14:40:37;2.13;;;1.20;;
49578;SDS011;35483;50.828;3.228;2023-07-16T14:43:06;2.40;;;1.20;;
49578;SDS011;35483;50.828;3.228;2023-07-16T14:45:32;3.50;;;1.38;;
49578;SDS011;35483;50.828;3.228;2023-07-16T14:48:00;2.53;;;1.75;;
49578;SDS011;35483;50.828;3.228;2023-07-16T14:50:25;2.97;;;1.50;;
49578;SDS011;35483;50.828;3.228;2023-07-16T14:52:53;2.15;;;1.38;;
49578;SDS011;35483;50.828;3.228;2023-07-16T14:55:18;2.55;;;1.83;;